sensor_id;sensor_type;location;lat;lon;timestamp;pressure;altitude;pressure_sealevel;temperature
5571;BMP180;2808;51.240;6.794;2023-05-10T00:00:55;100350.00;;;14.70
5571;BMP180;2808;51.240;6.794;2023-05-10T00:03:22;100349.00;;;14.70
5571;BMP180;2808;51.240;6.794;2023-05-10T00:05:51;100353.00;;;14.70
5571;BMP180;2808;51.240;6.794;2023-05-10T00:08:18;100346.00;;;14.70
5571;BMP180;2808;51.240;6.794;2023-05-10T00:10:46;100346.00;;;14.70
5571;BMP180;2808;51.240;6.794;2023-05-10T00:13:13;100345.00;;;14.70
5571;BMP180;2808;51.240;6.794;2023-05-10T00:15:41;100352.00;;;14.70
5571;BMP180;2808;51.240;6.794;2023-05-10T00:18:08;100354.00;;;14.70
5571;BMP180;2808;51.240;6.794;2023-05-10T00:20:37;100355.00;;;14.70
5571;BMP180;2808;51.240;6.794;2023-05-10T00:23:05;100349.00;;;14.70
5571;BMP180;2808;51.240;6.794;2023-05-10T00:25:33;100358.00;;;14.60
5571;BMP180;2808;51.240;6.794;2023-05-10T00:28:00;100351.00;;;14.60
5571;BMP180;2808;51.240;6.794;2023-05-10T00:30:28;100348.00;;;14.60
5571;BMP180;2808;51.240;6.794;2023-05-10T00:32:55;100349.00;;;14.60
5571;BMP180;2808;51.240;6.794;2023-05-10T00:35:23;100349.00;;;14.60
5571;BMP180;2808;51.240;6.794;2023-05-10T00:37:50;100339.00;;;14.60
5571;BMP180;2808;51.240;6.794;2023-05-10T00:40:19;100346.00;;;14.60
5571;BMP180;2808;51.240;6.794;2023-05-10T00:42:46;100348.00;;;14.60
5571;BMP180;2808;51.240;6.794;2023-05-10T00:45:14;100340.00;;;14.60
5571;BMP180;2808;51.240;6.794;2023-05-10T00:47:41;100343.00;;;14.60
5571;BMP180;2808;51.240;6.794;2023-05-10T00:50:09;100345.00;;;14.60
5571;BMP180;2808;51.240;6.794;2023-05-10T00:52:37;100353.00;;;14.60
5571;BMP180;2808;51.240;6.794;2023-05-10T00:55:06;100359.00;;;14.50
5571;BMP180;2808;51.240;6.794;2023-05-10T00:57:35;100356.00;;;14.50
5571;BMP180;2808;51.240;6.794;2023-05-10T01:00:03;100352.00;;;14.50
5571;BMP180;2808;51.240;6.794;2023-05-10T01:02:30;100359.00;;;14.50
5571;BMP180;2808;51.240;6.794;2023-05-10T01:04:58;100356.00;;;14.40
5571;BMP180;2808;51.240;6.794;2023-05-10T01:07:26;100363.00;;;14.40
5571;BMP180;2808;51.240;6.794;2023-05-10T01:09:53;100358.00;;;14.40
5571;BMP180;2808;51.240;6.794;2023-05-10T01:12:20;100355.00;;;14.40
5571;BMP180;2808;51.240;6.794;2023-05-10T01:14:49;100354.00;;;14.40
5571;BMP180;2808;51.240;6.794;2023-05-10T01:17:17;100355.00;;;14.40
5571;BMP180;2808;51.240;6.794;2023-05-10T01:19:44;100357.00;;;14.30
5571;BMP180;2808;51.240;6.794;2023-05-10T01:22:33;100361.00;;;14.30
5571;BMP180;2808;51.240;6.794;2023-05-10T01:25:19;100370.00;;;14.20
5571;BMP180;2808;51.240;6.794;2023-05-10T01:31:17;100366.00;;;14.20
5571;BMP180;2808;51.240;6.794;2023-05-10T01:33:51;100355.00;;;14.20
5571;BMP180;2808;51.240;6.794;2023-05-10T01:36:24;100360.00;;;14.20
5571;BMP180;2808;51.240;6.794;2023-05-10T01:38:58;100354.00;;;14.20
5571;BMP180;2808;51.240;6.794;2023-05-10T01:41:36;100364.00;;;14.20
5571;BMP180;2808;51.240;6.794;2023-05-10T01:44:16;100365.00;;;14.20
5571;BMP180;2808;51.240;6.794;2023-05-10T01:46:48;100371.00;;;14.10
5571;BMP180;2808;51.240;6.794;2023-05-10T01:49:24;100368.00;;;14.10
5571;BMP180;2808;51.240;6.794;2023-05-10T01:51:54;100367.00;;;14.10
5571;BMP180;2808;51.240;6.794;2023-05-10T01:54:25;100371.00;;;14.00
5571;BMP180;2808;51.240;6.794;2023-05-10T01:56:58;100366.00;;;14.00
5571;BMP180;2808;51.240;6.794;2023-05-10T01:59:29;100365.00;;;14.00
5571;BMP180;2808;51.240;6.794;2023-05-10T02:01:59;100364.00;;;14.00
5571;BMP180;2808;51.240;6.794;2023-05-10T02:04:28;100369.00;;;14.00
5571;BMP180;2808;51.240;6.794;2023-05-10T02:06:57;100369.00;;;14.00
5571;BMP180;2808;51.240;6.794;2023-05-10T02:09:26;100374.00;;;14.00
5571;BMP180;2808;51.240;6.794;2023-05-10T02:11:55;100369.00;;;14.00
5571;BMP180;2808;51.240;6.794;2023-05-10T02:14:26;100364.00;;;14.00
5571;BMP180;2808;51.240;6.794;2023-05-10T02:16:57;100365.00;;;14.00
5571;BMP180;2808;51.240;6.794;2023-05-10T02:19:26;100380.00;;;14.00
5571;BMP180;2808;51.240;6.794;2023-05-10T02:21:56;100379.00;;;14.00
5571;BMP180;2808;51.240;6.794;2023-05-10T02:24:25;100379.00;;;14.10
5571;BMP180;2808;51.240;6.794;2023-05-10T02:26:54;100388.00;;;14.00
5571;BMP180;2808;51.240;6.794;2023-05-10T02:29:23;100382.00;;;14.10
5571;BMP180;2808;51.240;6.794;2023-05-10T02:31:52;100382.00;;;14.00
5571;BMP180;2808;51.240;6.794;2023-05-10T02:34:21;100388.00;;;14.00
5571;BMP180;2808;51.240;6.794;2023-05-10T02:36:49;100388.00;;;14.10
5571;BMP180;2808;51.240;6.794;2023-05-10T02:39:19;100391.00;;;14.10
5571;BMP180;2808;51.240;6.794;2023-05-10T02:41:48;100393.00;;;14.10
5571;BMP180;2808;51.240;6.794;2023-05-10T02:44:18;100391.00;;;14.20
5571;BMP180;2808;51.240;6.794;2023-05-10T02:46:46;100387.00;;;14.10
5571;BMP180;2808;51.240;6.794;2023-05-10T02:49:14;100386.00;;;14.10
5571;BMP180;2808;51.240;6.794;2023-05-10T02:51:50;100382.00;;;14.10
5571;BMP180;2808;51.240;6.794;2023-05-10T02:54:23;100385.00;;;14.10
5571;BMP180;2808;51.240;6.794;2023-05-10T02:56:56;100384.00;;;14.20
5571;BMP180;2808;51.240;6.794;2023-05-10T02:59:24;100380.00;;;14.10
5571;BMP180;2808;51.240;6.794;2023-05-10T03:01:52;100382.00;;;14.10
5571;BMP180;2808;51.240;6.794;2023-05-10T03:04:19;100385.00;;;14.10
5571;BMP180;2808;51.240;6.794;2023-05-10T03:06:47;100390.00;;;14.10
5571;BMP180;2808;51.240;6.794;2023-05-10T03:09:14;100388.00;;;14.10
5571;BMP180;2808;51.240;6.794;2023-05-10T03:11:54;100394.00;;;14.10
5571;BMP180;2808;51.240;6.794;2023-05-10T03:14:31;100385.00;;;14.20
5571;BMP180;2808;51.240;6.794;2023-05-10T03:17:14;100397.00;;;14.10
5571;BMP180;2808;51.240;6.794;2023-05-10T03:19:47;100391.00;;;14.20
5571;BMP180;2808;51.240;6.794;2023-05-10T03:22:23;100399.00;;;14.10
5571;BMP180;2808;51.240;6.794;2023-05-10T03:24:53;100387.00;;;14.10
5571;BMP180;2808;51.240;6.794;2023-05-10T03:27:23;100390.00;;;14.10
5571;BMP180;2808;51.240;6.794;2023-05-10T03:29:53;100391.00;;;14.10
5571;BMP180;2808;51.240;6.794;2023-05-10T03:32:22;100401.00;;;14.10
5571;BMP180;2808;51.240;6.794;2023-05-10T03:34:49;100409.00;;;14.10
5571;BMP180;2808;51.240;6.794;2023-05-10T03:37:17;100408.00;;;14.10
5571;BMP180;2808;51.240;6.794;2023-05-10T03:39:44;100406.00;;;14.10
5571;BMP180;2808;51.240;6.794;2023-05-10T03:42:11;100404.00;;;14.10
5571;BMP180;2808;51.240;6.794;2023-05-10T03:44:40;100406.00;;;14.10
5571;BMP180;2808;51.240;6.794;2023-05-10T03:47:08;100412.00;;;14.10
5571;BMP180;2808;51.240;6.794;2023-05-10T03:49:35;100406.00;;;14.10
5571;BMP180;2808;51.240;6.794;2023-05-10T03:52:02;100408.00;;;14.10
5571;BMP180;2808;51.240;6.794;2023-05-10T03:54:31;100416.00;;;14.10
5571;BMP180;2808;51.240;6.794;2023-05-10T03:56:59;100418.00;;;14.10
5571;BMP180;2808;51.240;6.794;2023-05-10T03:59:26;100412.00;;;14.10
5571;BMP180;2808;51.240;6.794;2023-05-10T04:01:55;100423.00;;;14.20
5571;BMP180;2808;51.240;6.794;2023-05-10T04:04:23;100422.00;;;14.20
5571;BMP180;2808;51.240;6.794;2023-05-10T04:06:50;100434.00;;;14.20
5571;BMP180;2808;51.240;6.794;2023-05-10T04:09:17;100422.00;;;14.20
5571;BMP180;2808;51.240;6.794;2023-05-10T04:11:45;100417.00;;;14.20
5571;BMP180;2808;51.240;6.794;2023-05-10T04:14:12;100421.00;;;14.20
5571;BMP180;2808;51.240;6.794;2023-05-10T04:16:39;100431.00;;;14.20
5571;BMP180;2808;51.240;6.794;2023-05-10T04:19:08;100430.00;;;14.20
5571;BMP180;2808;51.240;6.794;2023-05-10T04:21:36;100431.00;;;14.20
5571;BMP180;2808;51.240;6.794;2023-05-10T04:24:04;100421.00;;;14.20
5571;BMP180;2808;51.240;6.794;2023-05-10T04:26:32;100425.00;;;14.20
5571;BMP180;2808;51.240;6.794;2023-05-10T04:28:59;100417.00;;;14.20
5571;BMP180;2808;51.240;6.794;2023-05-10T04:31:27;100411.00;;;14.20
5571;BMP180;2808;51.240;6.794;2023-05-10T04:33:54;100411.00;;;14.20
5571;BMP180;2808;51.240;6.794;2023-05-10T04:36:23;100422.00;;;14.20
5571;BMP180;2808;51.240;6.794;2023-05-10T04:38:50;100425.00;;;14.20
5571;BMP180;2808;51.240;6.794;2023-05-10T04:41:17;100423.00;;;14.30
5571;BMP180;2808;51.240;6.794;2023-05-10T04:43:46;100410.00;;;14.20
5571;BMP180;2808;51.240;6.794;2023-05-10T04:46:15;100417.00;;;14.30
5571;BMP180;2808;51.240;6.794;2023-05-10T04:48:42;100426.00;;;14.30
5571;BMP180;2808;51.240;6.794;2023-05-10T04:51:13;100424.00;;;14.30
5571;BMP180;2808;51.240;6.794;2023-05-10T04:53:42;100426.00;;;14.30
5571;BMP180;2808;51.240;6.794;2023-05-10T04:56:09;100426.00;;;14.30
5571;BMP180;2808;51.240;6.794;2023-05-10T04:58:36;100431.00;;;14.30
5571;BMP180;2808;51.240;6.794;2023-05-10T05:01:07;100431.00;;;14.40
5571;BMP180;2808;51.240;6.794;2023-05-10T05:03:35;100436.00;;;14.40
5571;BMP180;2808;51.240;6.794;2023-05-10T05:06:03;100426.00;;;14.40
5571;BMP180;2808;51.240;6.794;2023-05-10T05:08:31;100435.00;;;14.40
5571;BMP180;2808;51.240;6.794;2023-05-10T05:10:59;100432.00;;;14.40
5571;BMP180;2808;51.240;6.794;2023-05-10T05:13:27;100440.00;;;14.50
5571;BMP180;2808;51.240;6.794;2023-05-10T05:15:54;100440.00;;;14.60
5571;BMP180;2808;51.240;6.794;2023-05-10T05:18:21;100450.00;;;14.60
5571;BMP180;2808;51.240;6.794;2023-05-10T05:20:49;100456.00;;;14.70
5571;BMP180;2808;51.240;6.794;2023-05-10T05:23:16;100457.00;;;14.70
5571;BMP180;2808;51.240;6.794;2023-05-10T05:25:44;100453.00;;;14.70
5571;BMP180;2808;51.240;6.794;2023-05-10T05:28:14;100454.00;;;14.70
5571;BMP180;2808;51.240;6.794;2023-05-10T05:30:41;100464.00;;;14.70
5571;BMP180;2808;51.240;6.794;2023-05-10T05:33:09;100457.00;;;14.70
5571;BMP180;2808;51.240;6.794;2023-05-10T05:35:36;100462.00;;;14.60
5571;BMP180;2808;51.240;6.794;2023-05-10T05:38:04;100464.00;;;14.60
5571;BMP180;2808;51.240;6.794;2023-05-10T05:40:31;100469.00;;;14.60
5571;BMP180;2808;51.240;6.794;2023-05-10T05:42:58;100460.00;;;14.60
5571;BMP180;2808;51.240;6.794;2023-05-10T05:45:27;100464.00;;;14.60
5571;BMP180;2808;51.240;6.794;2023-05-10T05:47:54;100470.00;;;14.50
5571;BMP180;2808;51.240;6.794;2023-05-10T05:50:22;100478.00;;;14.50
5571;BMP180;2808;51.240;6.794;2023-05-10T05:52:49;100483.00;;;14.50
5571;BMP180;2808;51.240;6.794;2023-05-10T05:55:17;100488.00;;;14.40
5571;BMP180;2808;51.240;6.794;2023-05-10T05:57:44;100479.00;;;14.40
5571;BMP180;2808;51.240;6.794;2023-05-10T06:00:13;100484.00;;;14.40
5571;BMP180;2808;51.240;6.794;2023-05-10T06:02:42;100486.00;;;14.40
5571;BMP180;2808;51.240;6.794;2023-05-10T06:05:09;100488.00;;;14.30
5571;BMP180;2808;51.240;6.794;2023-05-10T06:07:37;100497.00;;;14.30
5571;BMP180;2808;51.240;6.794;2023-05-10T06:10:05;100501.00;;;14.30
5571;BMP180;2808;51.240;6.794;2023-05-10T06:12:33;100501.00;;;14.30
5571;BMP180;2808;51.240;6.794;2023-05-10T06:15:00;100509.00;;;14.40
5571;BMP180;2808;51.240;6.794;2023-05-10T06:17:28;100509.00;;;14.40
5571;BMP180;2808;51.240;6.794;2023-05-10T06:19:57;100512.00;;;14.50
5571;BMP180;2808;51.240;6.794;2023-05-10T06:22:24;100500.00;;;14.60
5571;BMP180;2808;51.240;6.794;2023-05-10T06:24:51;100503.00;;;14.60
5571;BMP180;2808;51.240;6.794;2023-05-10T06:27:19;100505.00;;;14.60
5571;BMP180;2808;51.240;6.794;2023-05-10T06:29:47;100510.00;;;14.60
5571;BMP180;2808;51.240;6.794;2023-05-10T06:32:15;100507.00;;;14.60
5571;BMP180;2808;51.240;6.794;2023-05-10T06:34:42;100513.00;;;14.70
5571;BMP180;2808;51.240;6.794;2023-05-10T06:37:12;100517.00;;;14.60
5571;BMP180;2808;51.240;6.794;2023-05-10T06:39:39;100520.00;;;14.60
5571;BMP180;2808;51.240;6.794;2023-05-10T06:42:06;100520.00;;;14.60
5571;BMP180;2808;51.240;6.794;2023-05-10T06:44:34;100521.00;;;14.60
5571;BMP180;2808;51.240;6.794;2023-05-10T06:47:01;100531.00;;;14.60
5571;BMP180;2808;51.240;6.794;2023-05-10T06:49:28;100519.00;;;14.60
5571;BMP180;2808;51.240;6.794;2023-05-10T06:51:56;100527.00;;;14.60
5571;BMP180;2808;51.240;6.794;2023-05-10T06:54:24;100523.00;;;14.60
5571;BMP180;2808;51.240;6.794;2023-05-10T06:56:52;100537.00;;;14.60
5571;BMP180;2808;51.240;6.794;2023-05-10T06:59:20;100529.00;;;14.60
5571;BMP180;2808;51.240;6.794;2023-05-10T07:01:50;100543.00;;;14.60
5571;BMP180;2808;51.240;6.794;2023-05-10T07:04:17;100537.00;;;14.60
5571;BMP180;2808;51.240;6.794;2023-05-10T07:06:44;100534.00;;;14.60
5571;BMP180;2808;51.240;6.794;2023-05-10T07:09:12;100542.00;;;14.70
5571;BMP180;2808;51.240;6.794;2023-05-10T07:11:41;100541.00;;;14.80
5571;BMP180;2808;51.240;6.794;2023-05-10T07:14:09;100544.00;;;14.80
5571;BMP180;2808;51.240;6.794;2023-05-10T07:16:36;100531.00;;;14.90
5571;BMP180;2808;51.240;6.794;2023-05-10T07:19:03;100536.00;;;15.10
5571;BMP180;2808;51.240;6.794;2023-05-10T07:21:32;100541.00;;;15.20
5571;BMP180;2808;51.240;6.794;2023-05-10T07:23:59;100538.00;;;15.40
5571;BMP180;2808;51.240;6.794;2023-05-10T07:26:26;100544.00;;;15.50
5571;BMP180;2808;51.240;6.794;2023-05-10T07:28:55;100532.00;;;15.60
5571;BMP180;2808;51.240;6.794;2023-05-10T07:31:23;100546.00;;;15.60
5571;BMP180;2808;51.240;6.794;2023-05-10T07:33:50;100542.00;;;15.50
5571;BMP180;2808;51.240;6.794;2023-05-10T07:36:17;100538.00;;;15.60
5571;BMP180;2808;51.240;6.794;2023-05-10T07:38:45;100538.00;;;15.60
5571;BMP180;2808;51.240;6.794;2023-05-10T07:41:13;100534.00;;;15.70
5571;BMP180;2808;51.240;6.794;2023-05-10T07:43:40;100543.00;;;15.80
5571;BMP180;2808;51.240;6.794;2023-05-10T07:46:09;100553.00;;;15.70
5571;BMP180;2808;51.240;6.794;2023-05-10T07:48:37;100556.00;;;15.60
5571;BMP180;2808;51.240;6.794;2023-05-10T07:51:05;100551.00;;;15.50
5571;BMP180;2808;51.240;6.794;2023-05-10T07:53:35;100553.00;;;15.30
5571;BMP180;2808;51.240;6.794;2023-05-10T07:56:21;100559.00;;;15.20
5571;BMP180;2808;51.240;6.794;2023-05-10T07:58:48;100558.00;;;15.20
5571;BMP180;2808;51.240;6.794;2023-05-10T08:01:17;100565.00;;;15.20
5571;BMP180;2808;51.240;6.794;2023-05-10T08:03:45;100562.00;;;15.20
5571;BMP180;2808;51.240;6.794;2023-05-10T08:06:12;100562.00;;;15.20
5571;BMP180;2808;51.240;6.794;2023-05-10T08:08:39;100553.00;;;15.20
5571;BMP180;2808;51.240;6.794;2023-05-10T08:11:07;100560.00;;;15.40
5571;BMP180;2808;51.240;6.794;2023-05-10T08:13:34;100561.00;;;15.60
5571;BMP180;2808;51.240;6.794;2023-05-10T08:16:01;100561.00;;;15.70
5571;BMP180;2808;51.240;6.794;2023-05-10T08:18:30;100566.00;;;16.00
5571;BMP180;2808;51.240;6.794;2023-05-10T08:20:58;100565.00;;;16.30
5571;BMP180;2808;51.240;6.794;2023-05-10T08:23:25;100571.00;;;16.70
5571;BMP180;2808;51.240;6.794;2023-05-10T08:25:52;100568.00;;;17.00
5571;BMP180;2808;51.240;6.794;2023-05-10T08:28:20;100575.00;;;17.20
5571;BMP180;2808;51.240;6.794;2023-05-10T08:30:47;100571.00;;;17.30
5571;BMP180;2808;51.240;6.794;2023-05-10T08:33:15;100575.00;;;17.30
5571;BMP180;2808;51.240;6.794;2023-05-10T08:35:44;100580.00;;;17.40
5571;BMP180;2808;51.240;6.794;2023-05-10T08:38:11;100577.00;;;17.50
5571;BMP180;2808;51.240;6.794;2023-05-10T08:40:42;100583.00;;;17.50
5571;BMP180;2808;51.240;6.794;2023-05-10T08:43:11;100590.00;;;17.50
5571;BMP180;2808;51.240;6.794;2023-05-10T08:45:40;100593.00;;;17.50
5571;BMP180;2808;51.240;6.794;2023-05-10T08:48:09;100591.00;;;17.40
5571;BMP180;2808;51.240;6.794;2023-05-10T08:50:40;100600.00;;;17.30
5571;BMP180;2808;51.240;6.794;2023-05-10T08:53:12;100597.00;;;17.20
5571;BMP180;2808;51.240;6.794;2023-05-10T08:55:42;100604.00;;;17.00
5571;BMP180;2808;51.240;6.794;2023-05-10T08:58:10;100605.00;;;16.80
5571;BMP180;2808;51.240;6.794;2023-05-10T09:00:40;100606.00;;;16.60
5571;BMP180;2808;51.240;6.794;2023-05-10T09:03:08;100619.00;;;16.50
5571;BMP180;2808;51.240;6.794;2023-05-10T09:05:38;100621.00;;;16.40
5571;BMP180;2808;51.240;6.794;2023-05-10T09:08:10;100622.00;;;16.30
5571;BMP180;2808;51.240;6.794;2023-05-10T09:10:39;100621.00;;;16.40
5571;BMP180;2808;51.240;6.794;2023-05-10T09:13:08;100622.00;;;16.60
5571;BMP180;2808;51.240;6.794;2023-05-10T09:15:36;100623.00;;;16.70
5571;BMP180;2808;51.240;6.794;2023-05-10T09:18:04;100620.00;;;16.90
5571;BMP180;2808;51.240;6.794;2023-05-10T09:20:31;100616.00;;;17.10
5571;BMP180;2808;51.240;6.794;2023-05-10T09:22:58;100626.00;;;17.20
5571;BMP180;2808;51.240;6.794;2023-05-10T09:25:27;100627.00;;;17.30
5571;BMP180;2808;51.240;6.794;2023-05-10T09:27:55;100628.00;;;17.20
5571;BMP180;2808;51.240;6.794;2023-05-10T09:30:27;100637.00;;;17.10
5571;BMP180;2808;51.240;6.794;2023-05-10T09:32:56;100632.00;;;17.00
5571;BMP180;2808;51.240;6.794;2023-05-10T09:35:24;100626.00;;;16.80
5571;BMP180;2808;51.240;6.794;2023-05-10T09:37:54;100634.00;;;16.70
5571;BMP180;2808;51.240;6.794;2023-05-10T09:40:26;100634.00;;;16.80
5571;BMP180;2808;51.240;6.794;2023-05-10T09:42:57;100646.00;;;16.90
5571;BMP180;2808;51.240;6.794;2023-05-10T09:45:29;100643.00;;;17.10
5571;BMP180;2808;51.240;6.794;2023-05-10T09:48:01;100646.00;;;17.20
5571;BMP180;2808;51.240;6.794;2023-05-10T09:50:29;100639.00;;;17.40
5571;BMP180;2808;51.240;6.794;2023-05-10T09:52:58;100644.00;;;17.50
5571;BMP180;2808;51.240;6.794;2023-05-10T09:55:39;100653.00;;;17.70
5571;BMP180;2808;51.240;6.794;2023-05-10T09:58:08;100651.00;;;17.70
5571;BMP180;2808;51.240;6.794;2023-05-10T10:00:40;100645.00;;;17.90
5571;BMP180;2808;51.240;6.794;2023-05-10T10:03:13;100649.00;;;18.00
5571;BMP180;2808;51.240;6.794;2023-05-10T10:05:42;100648.00;;;18.20
5571;BMP180;2808;51.240;6.794;2023-05-10T10:08:10;100654.00;;;18.30
5571;BMP180;2808;51.240;6.794;2023-05-10T10:10:38;100654.00;;;18.30
5571;BMP180;2808;51.240;6.794;2023-05-10T10:13:08;100649.00;;;18.20
5571;BMP180;2808;51.240;6.794;2023-05-10T10:15:35;100653.00;;;18.00
5571;BMP180;2808;51.240;6.794;2023-05-10T10:18:06;100657.00;;;17.80
5571;BMP180;2808;51.240;6.794;2023-05-10T10:20:35;100652.00;;;17.60
5571;BMP180;2808;51.240;6.794;2023-05-10T10:23:04;100661.00;;;17.50
5571;BMP180;2808;51.240;6.794;2023-05-10T10:25:31;100663.00;;;17.30
5571;BMP180;2808;51.240;6.794;2023-05-10T10:28:15;100667.00;;;17.20
5571;BMP180;2808;51.240;6.794;2023-05-10T10:30:49;100676.00;;;17.00
5571;BMP180;2808;51.240;6.794;2023-05-10T10:33:38;100684.00;;;16.90
5571;BMP180;2808;51.240;6.794;2023-05-10T10:36:07;100673.00;;;16.80
5571;BMP180;2808;51.240;6.794;2023-05-10T10:41:30;100675.00;;;16.80
5571;BMP180;2808;51.240;6.794;2023-05-10T10:44:33;100677.00;;;17.00
5571;BMP180;2808;51.240;6.794;2023-05-10T10:47:02;100675.00;;;17.10
5571;BMP180;2808;51.240;6.794;2023-05-10T10:49:32;100682.00;;;17.20
5571;BMP180;2808;51.240;6.794;2023-05-10T10:52:25;100677.00;;;17.30
5571;BMP180;2808;51.240;6.794;2023-05-10T10:54:59;100669.00;;;17.40
5571;BMP180;2808;51.240;6.794;2023-05-10T10:57:27;100667.00;;;17.60
5571;BMP180;2808;51.240;6.794;2023-05-10T11:00:22;100662.00;;;17.90
5571;BMP180;2808;51.240;6.794;2023-05-10T11:02:51;100676.00;;;18.00
5571;BMP180;2808;51.240;6.794;2023-05-10T11:05:36;100676.00;;;18.00
5571;BMP180;2808;51.240;6.794;2023-05-10T11:08:18;100672.00;;;17.90
5571;BMP180;2808;51.240;6.794;2023-05-10T11:11:06;100679.00;;;17.60
5571;BMP180;2808;51.240;6.794;2023-05-10T11:13:37;100682.00;;;17.50
5571;BMP180;2808;51.240;6.794;2023-05-10T11:16:18;100680.00;;;17.30
5571;BMP180;2808;51.240;6.794;2023-05-10T11:18:58;100684.00;;;17.10
5571;BMP180;2808;51.240;6.794;2023-05-10T11:21:27;100687.00;;;17.00
5571;BMP180;2808;51.240;6.794;2023-05-10T11:23:55;100686.00;;;17.00
5571;BMP180;2808;51.240;6.794;2023-05-10T11:26:24;100691.00;;;17.00
5571;BMP180;2808;51.240;6.794;2023-05-10T11:28:53;100693.00;;;17.10
5571;BMP180;2808;51.240;6.794;2023-05-10T11:31:23;100691.00;;;17.10
5571;BMP180;2808;51.240;6.794;2023-05-10T11:33:54;100704.00;;;17.20
5571;BMP180;2808;51.240;6.794;2023-05-10T11:36:23;100697.00;;;17.20
5571;BMP180;2808;51.240;6.794;2023-05-10T11:38:51;100693.00;;;17.30
5571;BMP180;2808;51.240;6.794;2023-05-10T11:41:19;100701.00;;;17.50
5571;BMP180;2808;51.240;6.794;2023-05-10T11:43:49;100692.00;;;17.60
5571;BMP180;2808;51.240;6.794;2023-05-10T11:46:19;100693.00;;;17.60
5571;BMP180;2808;51.240;6.794;2023-05-10T11:48:50;100707.00;;;17.50
5571;BMP180;2808;51.240;6.794;2023-05-10T11:51:21;100699.00;;;17.50
5571;BMP180;2808;51.240;6.794;2023-05-10T11:53:50;100699.00;;;17.50
5571;BMP180;2808;51.240;6.794;2023-05-10T11:56:17;100710.00;;;17.70
5571;BMP180;2808;51.240;6.794;2023-05-10T11:58:45;100698.00;;;17.90
5571;BMP180;2808;51.240;6.794;2023-05-10T12:01:13;100695.00;;;18.10
5571;BMP180;2808;51.240;6.794;2023-05-10T12:03:40;100702.00;;;18.30
5571;BMP180;2808;51.240;6.794;2023-05-10T12:06:13;100702.00;;;18.40
5571;BMP180;2808;51.240;6.794;2023-05-10T12:08:45;100709.00;;;18.60
5571;BMP180;2808;51.240;6.794;2023-05-10T12:11:13;100711.00;;;18.70
5571;BMP180;2808;51.240;6.794;2023-05-10T12:13:42;100706.00;;;18.70
5571;BMP180;2808;51.240;6.794;2023-05-10T12:16:17;100704.00;;;18.70
5571;BMP180;2808;51.240;6.794;2023-05-10T12:18:44;100702.00;;;18.80
5571;BMP180;2808;51.240;6.794;2023-05-10T12:21:13;100703.00;;;18.90
5571;BMP180;2808;51.240;6.794;2023-05-10T12:23:42;100706.00;;;19.00
5571;BMP180;2808;51.240;6.794;2023-05-10T12:26:10;100704.00;;;18.90
5571;BMP180;2808;51.240;6.794;2023-05-10T12:28:38;100708.00;;;18.90
5571;BMP180;2808;51.240;6.794;2023-05-10T12:31:06;100713.00;;;18.90
5571;BMP180;2808;51.240;6.794;2023-05-10T12:33:37;100710.00;;;18.80
5571;BMP180;2808;51.240;6.794;2023-05-10T12:36:12;100708.00;;;18.90
5571;BMP180;2808;51.240;6.794;2023-05-10T12:38:41;100714.00;;;18.80
5571;BMP180;2808;51.240;6.794;2023-05-10T12:41:10;100706.00;;;18.80
5571;BMP180;2808;51.240;6.794;2023-05-10T12:43:39;100709.00;;;18.70
5571;BMP180;2808;51.240;6.794;2023-05-10T12:46:07;100713.00;;;18.70
5571;BMP180;2808;51.240;6.794;2023-05-10T12:48:35;100714.00;;;18.70
5571;BMP180;2808;51.240;6.794;2023-05-10T12:51:03;100720.00;;;18.60
5571;BMP180;2808;51.240;6.794;2023-05-10T12:53:32;100722.00;;;18.60
5571;BMP180;2808;51.240;6.794;2023-05-10T12:56:00;100729.00;;;18.60
5571;BMP180;2808;51.240;6.794;2023-05-10T12:58:27;100723.00;;;18.70
5571;BMP180;2808;51.240;6.794;2023-05-10T13:00:55;100715.00;;;18.80
5571;BMP180;2808;51.240;6.794;2023-05-10T13:03:23;100724.00;;;18.90
5571;BMP180;2808;51.240;6.794;2023-05-10T13:05:50;100722.00;;;19.00
5571;BMP180;2808;51.240;6.794;2023-05-10T13:08:17;100731.00;;;19.00
5571;BMP180;2808;51.240;6.794;2023-05-10T13:10:46;100730.00;;;19.00
5571;BMP180;2808;51.240;6.794;2023-05-10T13:13:14;100734.00;;;19.20
5571;BMP180;2808;51.240;6.794;2023-05-10T13:15:41;100743.00;;;19.40
5571;BMP180;2808;51.240;6.794;2023-05-10T13:18:08;100732.00;;;19.50
5571;BMP180;2808;51.240;6.794;2023-05-10T13:20:36;100735.00;;;19.60
5571;BMP180;2808;51.240;6.794;2023-05-10T13:23:03;100734.00;;;19.60
5571;BMP180;2808;51.240;6.794;2023-05-10T13:25:30;100738.00;;;19.60
5571;BMP180;2808;51.240;6.794;2023-05-10T13:27:59;100736.00;;;19.70
5571;BMP180;2808;51.240;6.794;2023-05-10T13:30:26;100734.00;;;19.70
5571;BMP180;2808;51.240;6.794;2023-05-10T13:32:54;100726.00;;;19.60
5571;BMP180;2808;51.240;6.794;2023-05-10T13:35:22;100732.00;;;19.50
5571;BMP180;2808;51.240;6.794;2023-05-10T13:37:49;100729.00;;;19.40
5571;BMP180;2808;51.240;6.794;2023-05-10T13:40:19;100733.00;;;19.40
5571;BMP180;2808;51.240;6.794;2023-05-10T13:42:46;100728.00;;;19.30
5571;BMP180;2808;51.240;6.794;2023-05-10T13:45:15;100732.00;;;19.20
5571;BMP180;2808;51.240;6.794;2023-05-10T13:47:42;100730.00;;;19.10
5571;BMP180;2808;51.240;6.794;2023-05-10T13:50:10;100726.00;;;19.10
5571;BMP180;2808;51.240;6.794;2023-05-10T13:52:37;100726.00;;;19.10
5571;BMP180;2808;51.240;6.794;2023-05-10T13:55:05;100721.00;;;19.20
5571;BMP180;2808;51.240;6.794;2023-05-10T13:57:33;100727.00;;;19.30
5571;BMP180;2808;51.240;6.794;2023-05-10T14:00:02;100727.00;;;19.30
5571;BMP180;2808;51.240;6.794;2023-05-10T14:02:31;100723.00;;;19.10
5571;BMP180;2808;51.240;6.794;2023-05-10T14:04:58;100724.00;;;18.70
5571;BMP180;2808;51.240;6.794;2023-05-10T14:07:26;100720.00;;;18.70
5571;BMP180;2808;51.240;6.794;2023-05-10T14:09:53;100719.00;;;18.90
5571;BMP180;2808;51.240;6.794;2023-05-10T14:12:21;100713.00;;;19.00
5571;BMP180;2808;51.240;6.794;2023-05-10T14:14:48;100709.00;;;18.90
5571;BMP180;2808;51.240;6.794;2023-05-10T14:17:16;100715.00;;;18.90
5571;BMP180;2808;51.240;6.794;2023-05-10T14:19:45;100708.00;;;18.90
5571;BMP180;2808;51.240;6.794;2023-05-10T14:22:15;100707.00;;;19.00
5571;BMP180;2808;51.240;6.794;2023-05-10T14:24:43;100711.00;;;19.00
5571;BMP180;2808;51.240;6.794;2023-05-10T14:27:12;100712.00;;;19.00
5571;BMP180;2808;51.240;6.794;2023-05-10T14:29:40;100724.00;;;19.00
5571;BMP180;2808;51.240;6.794;2023-05-10T14:32:07;100718.00;;;18.90
5571;BMP180;2808;51.240;6.794;2023-05-10T14:34:36;100725.00;;;18.80
5571;BMP180;2808;51.240;6.794;2023-05-10T14:37:05;100720.00;;;18.80
5571;BMP180;2808;51.240;6.794;2023-05-10T14:39:32;100717.00;;;18.80